createdAt,value
2022-12-31T00:02:49.210Z,79.05
2022-12-31T00:07:50.623Z,79.56
2022-12-31T00:12:52.050Z,79.78
2022-12-31T00:17:53.476Z,79.23
2022-12-31T00:22:54.942Z,79.05
2022-12-31T00:27:56.367Z,79.98
2022-12-31T00:32:57.794Z,80.32
2022-12-31T00:37:59.201Z,80.06
2022-12-31T00:43:00.615Z,80.00
2022-12-31T00:48:02.194Z,79.74
2022-12-31T00:53:03.633Z,79.23
2022-12-31T00:58:05.138Z,80.32
2022-12-31T01:03:07.733Z,80.42
2022-12-31T01:08:09.217Z,80.48
2022-12-31T01:13:10.700Z,80.62
2022-12-31T01:18:12.421Z,81.01
2022-12-31T01:23:13.849Z,80.81
2022-12-31T01:28:15.278Z,80.42
2022-12-31T01:33:16.691Z,80.45
2022-12-31T01:38:18.101Z,79.98
2022-12-31T01:43:20.726Z,80.63
2022-12-31T01:48:26.524Z,80.71
2022-12-31T01:53:28.827Z,80.21
2022-12-31T01:58:40.904Z,81.11
2022-12-31T02:03:42.680Z,81.36
2022-12-31T02:08:44.746Z,81.88
2022-12-31T02:13:46.205Z,80.87
2022-12-31T02:19:06.619Z,80.34
2022-12-31T02:24:16.838Z,80.50
2022-12-31T02:30:12.654Z,80.21
2022-12-31T02:35:52.321Z,80.53
2022-12-31T02:40:54.873Z,80.62
2022-12-31T02:46:23.563Z,80.02
2022-12-31T02:51:51.600Z,79.76
2022-12-31T02:57:13.141Z,80.40
2022-12-31T03:02:19.588Z,80.03
2022-12-31T03:07:24.368Z,80.46
2022-12-31T03:12:47.661Z,80.21
2022-12-31T03:17:57.904Z,79.66
2022-12-31T03:22:59.359Z,79.45
2022-12-31T03:28:08.355Z,79.75
2022-12-31T03:33:10.191Z,79.85
2022-12-31T03:38:11.868Z,79.83
2022-12-31T03:43:13.510Z,79.65
2022-12-31T03:48:14.971Z,79.66
2022-12-31T03:53:16.636Z,80.30
2022-12-31T03:58:18.077Z,80.22
2022-12-31T04:03:19.630Z,80.08
2022-12-31T04:08:21.144Z,79.95
2022-12-31T04:13:22.497Z,80.05
2022-12-31T04:18:23.960Z,80.43
2022-12-31T04:23:25.389Z,80.49
2022-12-31T04:28:26.963Z,80.61
2022-12-31T04:33:28.397Z,80.41
2022-12-31T04:38:29.742Z,80.79
2022-12-31T04:43:31.190Z,80.79
2022-12-31T04:48:35.743Z,80.34
2022-12-31T04:53:37.679Z,80.30
2022-12-31T04:58:39.254Z,80.20
2022-12-31T05:03:41.206Z,80.47
2022-12-31T05:08:42.837Z,79.98
2022-12-31T05:13:44.468Z,80.10
2022-12-31T05:18:45.923Z,80.90
2022-12-31T05:23:47.587Z,80.28
2022-12-31T05:28:49.358Z,80.89
2022-12-31T05:33:50.957Z,81.04
2022-12-31T05:38:52.379Z,81.26
2022-12-31T05:43:53.713Z,80.92
2022-12-31T05:48:55.123Z,80.42
2022-12-31T05:53:56.470Z,79.95
2022-12-31T05:58:57.887Z,78.98
2022-12-31T06:04:00.397Z,78.44
2022-12-31T06:09:02.207Z,77.99
2022-12-31T06:14:03.911Z,77.13
2022-12-31T06:19:05.652Z,77.10
2022-12-31T06:24:07.450Z,76.92
2022-12-31T06:29:10.305Z,76.58
2022-12-31T06:34:12.549Z,76.89
2022-12-31T06:39:13.977Z,76.66
2022-12-31T06:44:15.345Z,76.46
2022-12-31T06:49:17.266Z,76.03
2022-12-31T06:54:18.750Z,75.96
2022-12-31T06:59:27.802Z,75.74
2022-12-31T07:04:45.685Z,75.11
2022-12-31T07:10:22.710Z,74.92
2022-12-31T07:15:30.173Z,75.34
2022-12-31T07:20:32.001Z,73.63
2022-12-31T07:25:36.662Z,74.46
2022-12-31T07:31:24.384Z,74.18
2022-12-31T07:36:51.998Z,74.08
2022-12-31T07:42:27.722Z,74.02
2022-12-31T07:47:30.491Z,72.63
2022-12-31T07:52:32.155Z,73.68
2022-12-31T07:57:40.852Z,72.74
2022-12-31T08:03:14.134Z,72.96
2022-12-31T08:08:30.513Z,72.19
2022-12-31T08:13:32.305Z,72.55
2022-12-31T08:18:33.950Z,72.53
2022-12-31T08:24:06.609Z,71.97
2022-12-31T08:29:34.173Z,73.24
2022-12-31T08:34:40.576Z,71.50
2022-12-31T08:39:55.545Z,71.63
2022-12-31T08:45:15.646Z,71.06
2022-12-31T08:50:18.761Z,71.29
2022-12-31T08:55:21.095Z,71.95
2022-12-31T09:00:23.064Z,70.80
2022-12-31T09:05:46.049Z,71.02
2022-12-31T09:10:57.200Z,71.66
2022-12-31T09:16:15.725Z,71.25
2022-12-31T09:21:18.589Z,70.86
2022-12-31T09:26:41.983Z,70.75
2022-12-31T09:31:52.415Z,70.27
2022-12-31T09:37:02.420Z,70.00
2022-12-31T09:42:48.524Z,69.37
2022-12-31T09:48:32.349Z,69.63
2022-12-31T09:54:04.053Z,69.69
2022-12-31T09:59:12.680Z,68.61
2022-12-31T10:04:41.925Z,68.78
2022-12-31T10:10:12.906Z,68.55
2022-12-31T10:15:29.663Z,68.51
2022-12-31T10:20:45.247Z,68.52
2022-12-31T10:26:14.502Z,68.36
2022-12-31T10:31:31.252Z,67.80
2022-12-31T10:36:56.367Z,68.24
2022-12-31T10:42:28.241Z,68.09
2022-12-31T10:48:17.821Z,67.90
2022-12-31T10:53:48.201Z,68.20
2022-12-31T10:59:14.663Z,68.34
2022-12-31T11:04:53.898Z,67.51
2022-12-31T11:10:25.443Z,68.01
2022-12-31T11:15:56.158Z,68.26
2022-12-31T11:21:15.709Z,68.16
2022-12-31T11:26:49.996Z,68.08
2022-12-31T11:31:58.126Z,68.68
2022-12-31T11:37:27.490Z,67.19
2022-12-31T11:42:55.200Z,67.65
2022-12-31T11:48:32.884Z,67.48
2022-12-31T11:53:51.477Z,67.31
2022-12-31T11:58:55.259Z,66.82
2022-12-31T12:03:56.790Z,67.62
2022-12-31T12:09:05.476Z,66.61
2022-12-31T12:14:31.120Z,65.68
2022-12-31T12:19:34.393Z,65.88
2022-12-31T12:24:36.066Z,64.64
2022-12-31T12:29:39.802Z,65.66
2022-12-31T12:34:47.711Z,65.34
2022-12-31T12:40:03.254Z,64.54
2022-12-31T12:45:16.526Z,64.39
2022-12-31T12:50:22.085Z,66.12
2022-12-31T12:55:41.677Z,65.58
2022-12-31T13:01:10.076Z,65.50
2022-12-31T13:06:33.541Z,65.98
2022-12-31T13:12:11.889Z,66.02
2022-12-31T13:17:52.717Z,66.18
2022-12-31T13:23:13.937Z,65.58
2022-12-31T13:28:16.245Z,66.71
2022-12-31T13:33:25.582Z,65.85
2022-12-31T13:38:31.689Z,66.19
2022-12-31T13:43:51.870Z,66.09
2022-12-31T13:48:58.179Z,66.23
2022-12-31T13:54:03.607Z,65.87
2022-12-31T13:59:28.360Z,66.20
2022-12-31T14:04:49.007Z,66.33
2022-12-31T14:09:50.522Z,67.09
2022-12-31T14:14:57.372Z,66.73
2022-12-31T14:20:29.092Z,67.07
2022-12-31T14:25:39.265Z,67.68
2022-12-31T14:30:44.598Z,67.43
2022-12-31T14:36:19.764Z,67.54
2022-12-31T14:42:04.331Z,67.31
2022-12-31T14:47:26.944Z,67.12
2022-12-31T14:52:47.938Z,67.04
2022-12-31T15:03:14.386Z,67.39
2022-12-31T15:08:31.727Z,66.99
2022-12-31T15:13:52.258Z,66.85
2022-12-31T15:19:26.570Z,66.84
2022-12-31T15:24:30.917Z,67.25
2022-12-31T15:29:36.564Z,67.37
2022-12-31T15:34:38.085Z,67.57
2022-12-31T15:39:42.579Z,67.38
2022-12-31T15:44:50.564Z,67.70
2022-12-31T15:49:53.808Z,68.15
2022-12-31T15:54:57.653Z,67.94
2022-12-31T16:00:01.107Z,68.41
2022-12-31T16:05:02.612Z,68.26
2022-12-31T16:10:05.564Z,68.45
2022-12-31T16:15:13.353Z,68.38
2022-12-31T16:20:32.615Z,68.52
2022-12-31T16:25:34.302Z,68.24
2022-12-31T16:30:36.479Z,68.70
2022-12-31T16:35:38.031Z,67.94
2022-12-31T16:40:42.124Z,68.32
2022-12-31T16:45:43.877Z,69.21
2022-12-31T16:50:50.538Z,67.64
2022-12-31T16:55:56.138Z,68.31
2022-12-31T17:01:25.373Z,67.47
2022-12-31T17:06:28.362Z,68.03
2022-12-31T17:11:44.109Z,67.82
2022-12-31T17:17:07.461Z,67.84
2022-12-31T17:22:17.305Z,67.38
2022-12-31T17:27:19.099Z,68.57
2022-12-31T17:32:36.962Z,67.34
2022-12-31T17:37:38.500Z,67.44
2022-12-31T17:42:40.115Z,67.07
2022-12-31T17:47:47.450Z,66.75
2022-12-31T17:52:49.028Z,66.86
2022-12-31T17:57:56.130Z,66.21
2022-12-31T18:03:00.853Z,66.37
2022-12-31T18:08:02.373Z,65.87
2022-12-31T18:13:07.033Z,66.97
2022-12-31T18:18:24.743Z,66.90
2022-12-31T18:23:30.502Z,67.38
2022-12-31T18:28:32.089Z,67.79
2022-12-31T18:33:33.630Z,67.92
2022-12-31T18:38:35.075Z,68.73
2022-12-31T18:43:36.526Z,67.27
2022-12-31T18:48:37.951Z,69.02
2022-12-31T18:53:39.406Z,68.47
2022-12-31T18:58:41.388Z,66.78
2022-12-31T19:03:42.810Z,68.30
2022-12-31T19:08:44.251Z,67.95
2022-12-31T19:13:46.049Z,68.93
2022-12-31T19:18:48.990Z,67.34
2022-12-31T19:23:50.785Z,67.47
2022-12-31T19:28:52.332Z,67.44
2022-12-31T19:33:53.781Z,67.77
2022-12-31T19:38:55.227Z,67.13
2022-12-31T19:43:56.679Z,66.43
2022-12-31T19:48:58.403Z,64.47
2022-12-31T19:53:59.820Z,65.21
2022-12-31T19:59:09.915Z,64.48
2022-12-31T20:04:11.381Z,63.51
2022-12-31T20:09:12.805Z,64.88
2022-12-31T20:14:14.228Z,63.89
2022-12-31T20:19:15.657Z,64.16
2022-12-31T20:24:17.093Z,63.65
2022-12-31T20:29:18.639Z,63.25
2022-12-31T20:34:20.073Z,61.75
2022-12-31T20:39:21.569Z,61.87
2022-12-31T20:44:23.012Z,61.91
2022-12-31T20:49:52.224Z,61.30
2022-12-31T20:54:45.857Z,62.23
2022-12-31T20:59:47.290Z,62.60
2022-12-31T21:04:48.810Z,61.11
2022-12-31T21:09:50.448Z,61.31
2022-12-31T21:14:51.869Z,62.09
2022-12-31T21:19:53.309Z,59.85
2022-12-31T21:24:54.734Z,60.42
2022-12-31T21:40:39.485Z,58.08
2022-12-31T21:45:41.511Z,58.10
2022-12-31T21:50:42.963Z,57.71
2022-12-31T21:56:03.828Z,57.25
2022-12-31T22:01:24.864Z,56.07
2022-12-31T22:06:26.462Z,56.08
2022-12-31T22:11:28.648Z,54.97
2022-12-31T22:16:30.159Z,54.90
2022-12-31T22:21:31.688Z,54.85
2022-12-31T22:26:33.133Z,54.95
2022-12-31T22:31:34.607Z,54.20
2022-12-31T22:36:36.096Z,54.45
2022-12-31T22:41:39.937Z,54.90
2022-12-31T22:46:41.981Z,55.03
2022-12-31T22:51:55.963Z,55.19
2022-12-31T22:57:01.397Z,55.33
2022-12-31T23:02:02.928Z,56.13
2022-12-31T23:07:04.402Z,55.90
2022-12-31T23:12:07.933Z,55.75
2022-12-31T23:17:34.401Z,56.14
2022-12-31T23:22:54.398Z,55.72
2022-12-31T23:27:55.825Z,56.52
2022-12-31T23:32:57.369Z,56.89
2022-12-31T23:37:58.806Z,56.75
2022-12-31T23:43:04.552Z,57.19
2022-12-31T23:48:06.037Z,57.46
2022-12-31T23:53:07.746Z,57.47
2022-12-31T23:58:09.535Z,58.09
